createdAt,value
2018-09-17T00:00:17.612Z,98356.42
2018-09-17T00:01:21.934Z,98352.42
2018-09-17T00:02:25.872Z,98350.63
2018-09-17T00:03:30.724Z,98354.22
2018-09-17T00:04:34.203Z,98348.90
2018-09-17T00:05:37.179Z,98351.52
2018-09-17T00:06:41.204Z,98350.63
2018-09-17T00:07:45.140Z,98351.39
2018-09-17T00:08:50.128Z,98347.83
2018-09-17T00:09:53.315Z,98347.69
2018-09-17T00:10:57.113Z,98351.78
2018-09-17T00:12:01.231Z,98353.73
2018-09-17T00:13:04.562Z,98349.59
2018-09-17T00:14:09.957Z,98345.59
2018-09-17T00:15:14.065Z,98349.45
2018-09-17T00:16:18.357Z,98347.90
2018-09-17T00:17:22.651Z,98344.23
2018-09-17T00:18:27.476Z,98345.45
2018-09-17T00:19:30.694Z,98349.26
2018-09-17T00:20:34.027Z,98352.38
2018-09-17T00:21:37.526Z,98348.82
2018-09-17T00:22:41.774Z,98352.61
2018-09-17T00:23:45.367Z,98352.70
2018-09-17T00:24:48.424Z,98356.47
2018-09-17T00:25:52.282Z,98357.07
2018-09-17T00:26:55.393Z,98357.83
2018-09-17T00:27:58.452Z,98354.52
2018-09-17T00:29:01.563Z,98361.02
2018-09-17T00:30:04.881Z,98359.45
2018-09-17T00:31:07.986Z,98357.98
2018-09-17T00:32:10.969Z,98349.68
2018-09-17T00:33:14.032Z,98355.55
2018-09-17T00:34:16.925Z,98350.28
2018-09-17T00:35:20.133Z,98352.56
2018-09-17T00:36:23.488Z,98349.50
2018-09-17T00:37:26.462Z,98351.00
2018-09-17T00:38:29.342Z,98353.64
2018-09-17T00:39:32.227Z,98348.27
2018-09-17T00:40:35.490Z,98351.20
2018-09-17T00:41:38.483Z,98357.17
2018-09-17T00:42:41.875Z,98352.00
2018-09-17T00:43:44.814Z,98351.73
2018-09-17T00:44:47.830Z,98351.20
2018-09-17T00:45:50.824Z,98356.19
2018-09-17T00:46:53.732Z,98357.98
2018-09-17T00:47:56.661Z,98354.48
2018-09-17T00:48:59.673Z,98353.45
2018-09-17T00:50:02.697Z,98358.47
2018-09-17T00:51:05.947Z,98359.59
2018-09-17T00:52:09.071Z,98366.70
2018-09-17T00:53:12.124Z,98365.84
2018-09-17T00:54:16.357Z,98363.49
2018-09-17T00:55:19.422Z,98361.89
2018-09-17T00:56:22.161Z,98358.52
2018-09-17T00:57:24.930Z,98365.70
2018-09-17T00:58:27.683Z,98365.66
2018-09-17T00:59:30.411Z,98359.06
2018-09-17T01:00:33.136Z,98358.69
2018-09-17T01:01:36.192Z,98358.12
2018-09-17T01:02:38.926Z,98361.84
2018-09-17T01:03:41.640Z,98356.05
2018-09-17T01:04:44.348Z,98350.92
2018-09-17T01:05:47.147Z,98353.36
2018-09-17T01:06:49.945Z,98355.64
2018-09-17T01:07:53.002Z,98356.52
2018-09-17T01:08:55.773Z,98354.46
2018-09-17T01:09:58.536Z,98356.80
2018-09-17T01:11:01.284Z,98353.34
2018-09-17T01:12:04.053Z,98351.77
2018-09-17T01:13:06.858Z,98351.06
2018-09-17T01:14:10.577Z,98356.13
2018-09-17T01:15:13.296Z,98352.45
2018-09-17T01:16:16.074Z,98354.85
2018-09-17T01:17:19.396Z,98355.45
2018-09-17T01:18:22.144Z,98352.91
2018-09-17T01:19:24.907Z,98363.88
2018-09-17T01:20:27.984Z,98360.52
2018-09-17T01:21:30.757Z,98355.18
2018-09-17T01:22:33.470Z,98363.61
2018-09-17T01:23:36.277Z,98361.84
2018-09-17T01:24:39.069Z,98361.27
2018-09-17T01:25:41.805Z,98365.06
2018-09-17T01:26:44.967Z,98358.39
2018-09-17T01:27:48.530Z,98362.30
2018-09-17T01:28:51.436Z,98361.72
2018-09-17T01:29:54.282Z,98363.14
2018-09-17T01:30:57.113Z,98363.23
2018-09-17T01:31:59.903Z,98367.77
2018-09-17T01:33:03.064Z,98364.43
2018-09-17T01:34:05.871Z,98368.13
2018-09-17T01:35:08.747Z,98364.73
2018-09-17T01:36:11.561Z,98373.59
2018-09-17T01:37:15.648Z,98365.49
2018-09-17T01:38:18.461Z,98363.34
2018-09-17T01:39:21.218Z,98362.22
2018-09-17T01:40:23.977Z,98361.87
2018-09-17T01:41:27.110Z,98369.09
2018-09-17T01:42:30.001Z,98363.06
2018-09-17T01:43:33.401Z,98369.09
2018-09-17T01:44:36.462Z,98375.09
2018-09-17T01:45:39.833Z,98373.49
2018-09-17T01:46:43.867Z,98377.50
2018-09-17T01:47:46.667Z,98373.83
2018-09-17T01:48:49.425Z,98383.97
2018-09-17T01:49:52.176Z,98381.11
2018-09-17T01:50:54.932Z,98382.10
2018-09-17T01:51:57.718Z,98379.22
2018-09-17T01:53:00.562Z,98375.05
2018-09-17T01:54:03.334Z,98376.24
2018-09-17T01:55:06.065Z,98377.30
2018-09-17T01:56:08.834Z,98382.16
2018-09-17T01:57:11.606Z,98377.92
2018-09-17T01:58:14.382Z,98381.77
2018-09-17T01:59:17.184Z,98382.02
2018-09-17T02:00:19.923Z,98380.25
2018-09-17T02:01:22.758Z,98381.36
2018-09-17T02:02:25.821Z,98384.50
2018-09-17T02:03:28.566Z,98383.47
2018-09-17T02:04:31.301Z,98386.68
2018-09-17T02:05:34.123Z,98384.98
2018-09-17T02:06:36.876Z,98386.88
2018-09-17T02:07:39.625Z,98380.33
2018-09-17T02:08:42.653Z,98385.91
2018-09-17T02:09:45.442Z,98385.44
2018-09-17T02:10:48.230Z,98383.99
2018-09-17T02:11:50.997Z,98386.00
2018-09-17T02:12:53.733Z,98389.15
2018-09-17T02:13:56.550Z,98389.54
2018-09-17T02:14:59.625Z,98385.37
2018-09-17T02:16:02.379Z,98386.48
2018-09-17T02:17:05.501Z,98381.70
2018-09-17T02:18:08.265Z,98388.73
2018-09-17T02:19:11.132Z,98390.75
2018-09-17T02:20:13.909Z,98394.77
2018-09-17T02:21:17.117Z,98401.72
2018-09-17T02:22:20.917Z,98395.08
2018-09-17T02:23:23.748Z,98394.58
2018-09-17T02:24:26.582Z,98396.19
2018-09-17T02:25:29.360Z,98395.64
2018-09-17T02:26:32.108Z,98389.54
2018-09-17T02:27:35.213Z,98382.51
2018-09-17T02:28:38.505Z,98390.27
2018-09-17T02:29:41.337Z,98390.19
2018-09-17T02:30:45.002Z,98384.99
2018-09-17T02:31:47.842Z,98382.65
2018-09-17T02:32:50.697Z,98381.69
2018-09-17T02:33:54.052Z,98383.05
2018-09-17T02:34:57.021Z,98384.91
2018-09-17T02:35:59.980Z,98376.73
2018-09-17T02:37:02.751Z,98381.45
2018-09-17T02:38:05.544Z,98379.92
2018-09-17T02:39:08.668Z,98376.08
2018-09-17T02:40:17.868Z,98382.19
2018-09-17T02:41:22.453Z,98387.06
2018-09-17T02:42:25.250Z,98386.33
2018-09-17T02:43:28.169Z,98388.71
2018-09-17T02:44:30.950Z,98382.95
2018-09-17T02:45:33.677Z,98378.09
2018-09-17T02:46:36.877Z,98379.44
2018-09-17T02:47:39.617Z,98378.13
2018-09-17T02:48:42.409Z,98372.13
2018-09-17T02:49:45.179Z,98372.05
2018-09-17T02:50:48.054Z,98373.86
2018-09-17T02:51:50.812Z,98373.38
2018-09-17T02:52:54.083Z,98372.59
2018-09-17T02:53:56.937Z,98367.73
2018-09-17T02:55:04.412Z,98369.37
2018-09-17T02:56:07.273Z,98367.28
2018-09-17T02:57:10.034Z,98363.37
2018-09-17T02:58:12.781Z,98365.05
2018-09-17T02:59:16.027Z,98368.39
2018-09-17T03:00:21.277Z,98368.98
2018-09-17T03:01:24.052Z,98364.58
2018-09-17T03:02:26.820Z,98369.16
2018-09-17T03:03:29.630Z,98367.63
2018-09-17T03:04:32.535Z,98370.40
2018-09-17T03:05:35.874Z,98370.57
2018-09-17T03:06:38.683Z,98364.95
2018-09-17T03:07:41.434Z,98366.73
2018-09-17T03:08:44.207Z,98361.52
2018-09-17T03:09:47.010Z,98363.86
2018-09-17T03:10:49.794Z,98362.10
2018-09-17T03:11:52.568Z,98366.68
2018-09-17T03:12:55.315Z,98364.42
2018-09-17T03:13:58.145Z,98367.56
2018-09-17T03:15:00.910Z,98364.44
2018-09-17T03:16:03.701Z,98373.42
2018-09-17T03:17:08.083Z,98369.48
2018-09-17T03:18:10.885Z,98369.19
2018-09-17T03:19:14.492Z,98371.08
2018-09-17T03:20:17.375Z,98372.57
2018-09-17T03:21:20.196Z,98372.99
2018-09-17T03:22:22.969Z,98375.81
2018-09-17T03:23:25.744Z,98373.95
2018-09-17T03:24:28.573Z,98372.67
2018-09-17T03:25:31.329Z,98373.70
2018-09-17T03:26:34.087Z,98372.77
2018-09-17T03:27:36.841Z,98372.52
2018-09-17T03:28:40.008Z,98374.59
2018-09-17T03:29:42.775Z,98379.30
2018-09-17T03:30:45.579Z,98383.09
2018-09-17T03:31:48.376Z,98376.50
2018-09-17T03:32:51.176Z,98380.30
2018-09-17T03:33:53.958Z,98375.79
2018-09-17T03:34:57.230Z,98381.56
2018-09-17T03:36:00.047Z,98380.36
2018-09-17T03:37:02.894Z,98380.95
2018-09-17T03:38:08.041Z,98391.95
2018-09-17T03:39:10.816Z,98397.89
2018-09-17T03:40:13.589Z,98391.95
2018-09-17T03:41:17.020Z,98398.50
2018-09-17T03:42:19.778Z,98400.41
2018-09-17T03:43:22.567Z,98395.61
2018-09-17T03:44:25.338Z,98401.45
2018-09-17T03:45:28.094Z,98400.95
2018-09-17T03:46:31.265Z,98394.41
2018-09-17T03:47:34.134Z,98397.58
2018-09-17T03:48:37.678Z,98396.47
2018-09-17T03:49:40.467Z,98397.23
2018-09-17T03:50:43.220Z,98389.14
2018-09-17T03:51:46.104Z,98391.41
2018-09-17T03:52:49.170Z,98389.08
2018-09-17T03:53:51.941Z,98386.52
2018-09-17T03:54:54.760Z,98383.62
2018-09-17T03:55:57.527Z,98381.04
2018-09-17T03:57:00.278Z,98378.18
2018-09-17T03:58:03.072Z,98383.55
2018-09-17T03:59:05.829Z,98384.73
2018-09-17T04:00:08.641Z,98386.02
2018-09-17T04:01:11.410Z,98387.63
2018-09-17T04:02:14.153Z,98387.56
2018-09-17T04:03:16.950Z,98390.17
2018-09-17T04:04:19.718Z,98383.88
2018-09-17T04:05:22.559Z,98384.17
2018-09-17T04:06:25.316Z,98382.48
2018-09-17T04:07:28.032Z,98379.48
2018-09-17T04:08:32.032Z,98375.00
2018-09-17T04:09:35.179Z,98372.52
2018-09-17T04:10:38.006Z,98377.64
2018-09-17T04:11:40.754Z,98372.70
2018-09-17T04:12:43.514Z,98372.98
2018-09-17T04:13:46.305Z,98376.02
2018-09-17T04:14:49.029Z,98374.89
2018-09-17T04:15:52.402Z,98380.30
2018-09-17T04:16:55.215Z,98374.55
2018-09-17T04:17:58.473Z,98379.13
2018-09-17T04:19:01.217Z,98380.73
2018-09-17T04:20:03.970Z,98382.70
2018-09-17T04:21:06.700Z,98374.30
2018-09-17T04:22:10.320Z,98379.59
2018-09-17T04:23:13.059Z,98380.77
2018-09-17T04:24:15.813Z,98377.30
2018-09-17T04:25:18.578Z,98383.70
2018-09-17T04:26:21.335Z,98382.73
2018-09-17T04:27:24.060Z,98376.19
2018-09-17T04:28:27.135Z,98373.25
2018-09-17T04:29:29.893Z,98379.94
2018-09-17T04:30:33.637Z,98374.25
2018-09-17T04:31:36.380Z,98370.66
2018-09-17T04:32:39.182Z,98383.71
2018-09-17T04:33:43.055Z,98376.87
2018-09-17T04:34:46.106Z,98374.75
2018-09-17T04:35:52.730Z,98375.89
2018-09-17T04:36:55.504Z,98371.06
2018-09-17T04:37:58.256Z,98377.36
2018-09-17T04:39:01.549Z,98381.64
2018-09-17T04:40:04.306Z,98391.30
2018-09-17T04:41:07.347Z,98394.88
2018-09-17T04:42:10.148Z,98393.37
2018-09-17T04:43:12.950Z,98385.27
2018-09-17T04:44:15.791Z,98388.81
2018-09-17T04:45:19.170Z,98388.96
2018-09-17T04:46:22.071Z,98394.80
2018-09-17T04:47:25.311Z,98394.02
2018-09-17T04:48:28.118Z,98393.83
2018-09-17T04:49:30.885Z,98396.84
2018-09-17T04:50:33.668Z,98393.16
2018-09-17T04:51:36.495Z,98394.03
2018-09-17T04:52:39.283Z,98389.84
2018-09-17T04:53:42.043Z,98391.14
2018-09-17T04:54:44.847Z,98385.70
2018-09-17T04:55:47.668Z,98383.18
2018-09-17T04:56:50.815Z,98376.20
2018-09-17T04:57:54.276Z,98382.86
2018-09-17T04:58:57.345Z,98383.17
2018-09-17T05:00:00.104Z,98386.78
2018-09-17T05:01:06.411Z,98384.06
2018-09-17T05:02:09.326Z,98384.41
2018-09-17T05:03:12.081Z,98394.41
2018-09-17T05:04:14.862Z,98396.94
2018-09-17T05:05:17.989Z,98404.78
2018-09-17T05:06:20.776Z,98402.70
2018-09-17T05:07:23.591Z,98406.52
2018-09-17T05:08:26.349Z,98403.93
2018-09-17T05:09:29.756Z,98401.27
2018-09-17T05:10:32.489Z,98404.83
2018-09-17T05:11:35.559Z,98398.34
2018-09-17T05:12:38.349Z,98397.95
2018-09-17T05:13:41.141Z,98403.73
2018-09-17T05:14:43.909Z,98407.56
2018-09-17T05:15:46.802Z,98408.41
2018-09-17T05:16:49.594Z,98398.09
2018-09-17T05:17:52.919Z,98395.67
2018-09-17T05:18:55.750Z,98390.28
2018-09-17T05:19:58.754Z,98383.52
2018-09-17T05:21:01.521Z,98384.34
2018-09-17T05:22:04.634Z,98385.20
2018-09-17T05:23:07.440Z,98388.79
2018-09-17T05:24:10.613Z,98388.41
2018-09-17T05:25:13.527Z,98394.80
2018-09-17T05:26:17.370Z,98395.59
2018-09-17T05:27:20.129Z,98398.63
2018-09-17T05:28:22.984Z,98399.28
2018-09-17T05:29:26.522Z,98398.04
2018-09-17T05:43:50.502Z,98399.42
2018-09-17T05:44:53.551Z,98396.32
2018-09-17T05:45:56.281Z,98398.09
2018-09-17T05:46:59.029Z,98398.73
2018-09-17T05:48:01.837Z,98392.78
2018-09-17T05:49:04.959Z,98394.56
2018-09-17T05:50:07.764Z,98394.12
2018-09-17T05:51:10.519Z,98393.47
2018-09-17T05:52:13.528Z,98395.31
2018-09-17T05:53:17.975Z,98391.64
2018-09-17T05:54:20.732Z,98389.93
2018-09-17T05:55:23.800Z,98397.86
2018-09-17T05:56:26.769Z,98402.20
2018-09-17T05:57:29.546Z,98402.28
2018-09-17T05:58:32.342Z,98404.86
2018-09-17T05:59:35.324Z,98408.61
2018-09-17T06:00:38.120Z,98408.77
2018-09-17T06:01:43.477Z,98405.26
2018-09-17T06:02:46.345Z,98404.16
2018-09-17T06:03:49.422Z,98408.29
2018-09-17T06:04:52.265Z,98412.45
2018-09-17T06:05:55.064Z,98404.18
2018-09-17T06:06:57.949Z,98400.70
2018-09-17T06:08:01.236Z,98398.02
2018-09-17T06:09:04.564Z,98393.30
2018-09-17T06:10:11.309Z,98402.13
2018-09-17T06:11:14.068Z,98394.55
2018-09-17T06:12:17.082Z,98395.74
2018-09-17T06:13:19.970Z,98401.77
2018-09-17T06:14:25.535Z,98399.87
2018-09-17T06:15:28.300Z,98399.30
2018-09-17T06:16:31.987Z,98405.15
2018-09-17T06:17:34.876Z,98405.61
2018-09-17T06:18:37.634Z,98409.91
2018-09-17T06:19:40.404Z,98415.60
2018-09-17T06:20:44.455Z,98408.25
2018-09-17T06:21:47.456Z,98411.03
2018-09-17T06:22:50.218Z,98407.34
2018-09-17T06:23:52.984Z,98402.14
2018-09-17T06:24:55.855Z,98408.66
2018-09-17T06:25:58.667Z,98404.20
2018-09-17T06:27:03.183Z,98400.89
2018-09-17T06:28:06.035Z,98408.47
2018-09-17T06:29:08.796Z,98406.28
2018-09-17T06:30:11.700Z,98410.75
2018-09-17T06:31:15.272Z,98409.91
2018-09-17T06:32:18.124Z,98407.04
2018-09-17T06:33:22.955Z,98409.50
2018-09-17T06:34:26.576Z,98414.49
2018-09-17T06:35:30.485Z,98408.09
2018-09-17T06:36:33.399Z,98407.52
2018-09-17T06:37:36.183Z,98404.64
2018-09-17T06:38:39.047Z,98405.83
2018-09-17T06:39:43.196Z,98401.43
2018-09-17T06:40:45.949Z,98400.92
2018-09-17T06:41:48.708Z,98403.89
2018-09-17T06:42:51.577Z,98407.27
2018-09-17T06:43:54.342Z,98401.53
2018-09-17T06:44:57.362Z,98399.27
2018-09-17T06:46:00.615Z,98400.70
2018-09-17T06:47:18.034Z,98402.61
2018-09-17T06:48:20.820Z,98399.52
2018-09-17T06:49:25.078Z,98394.70
2018-09-17T06:50:29.350Z,98398.92
2018-09-17T06:51:33.508Z,98396.68
2018-09-17T06:52:36.646Z,98406.24
2018-09-17T06:53:39.551Z,98402.70
2018-09-17T06:54:42.396Z,98411.52
2018-09-17T06:55:45.249Z,98407.84
2018-09-17T06:56:48.786Z,98410.69
2018-09-17T06:57:51.658Z,98404.19
2018-09-17T07:05:25.993Z,98419.56
2018-09-17T07:09:43.966Z,98413.31
2018-09-17T07:10:48.731Z,98414.81
2018-09-17T07:12:02.898Z,98408.89
2018-09-17T07:13:19.006Z,98417.00
2018-09-17T07:14:32.284Z,98416.09
2018-09-17T07:34:25.946Z,98415.95
2018-09-17T07:45:03.107Z,98417.39
2018-09-17T07:52:07.534Z,98416.04
2018-09-17T07:53:10.513Z,98416.88
2018-09-17T07:54:23.791Z,98420.91
2018-09-17T07:55:28.020Z,98418.84
2018-09-17T07:56:31.246Z,98426.20
2018-09-17T07:57:34.298Z,98420.77
2018-09-17T07:58:37.194Z,98418.36
2018-09-17T07:59:40.058Z,98421.56
2018-09-17T08:00:43.152Z,98425.78
2018-09-17T08:01:46.089Z,98423.39
2018-09-17T08:02:49.515Z,98423.81
2018-09-17T08:03:52.358Z,98413.41
2018-09-17T08:04:55.240Z,98416.08
2018-09-17T08:05:58.002Z,98421.90
2018-09-17T08:07:01.211Z,98416.23
2018-09-17T08:08:04.014Z,98422.66
2018-09-17T08:09:06.793Z,98422.98
2018-09-17T08:10:09.653Z,98423.08
2018-09-17T08:11:12.480Z,98426.62
2018-09-17T08:12:15.736Z,98426.79
2018-09-17T08:13:19.036Z,98428.66
2018-09-17T08:14:24.832Z,98428.39
2018-09-17T08:15:28.118Z,98429.59
2018-09-17T08:16:30.951Z,98423.13
2018-09-17T08:17:33.685Z,98418.72
2018-09-17T08:18:36.433Z,98423.15
2018-09-17T08:19:39.763Z,98418.59
2018-09-17T08:20:42.592Z,98415.36
2018-09-17T08:21:45.375Z,98415.99
2018-09-17T08:22:51.374Z,98413.92
2018-09-17T08:23:54.849Z,98412.20
2018-09-17T08:25:00.448Z,98412.28
2018-09-17T08:26:05.658Z,98408.19
2018-09-17T08:28:37.123Z,98411.30
2018-09-17T08:29:42.055Z,98401.16
2018-09-17T08:30:45.723Z,98404.88
2018-09-17T08:31:54.095Z,98406.59
2018-09-17T08:32:57.291Z,98397.25
2018-09-17T08:34:02.548Z,98397.05
2018-09-17T08:35:08.335Z,98402.80
2018-09-17T08:36:11.954Z,98397.80
2018-09-17T08:37:15.758Z,98396.55
2018-09-17T08:38:18.581Z,98397.41
2018-09-17T08:39:22.251Z,98393.75
2018-09-17T08:40:26.625Z,98399.98
2018-09-17T08:41:29.598Z,98392.07
2018-09-17T08:42:34.248Z,98387.02
2018-09-17T08:43:37.625Z,98390.20
2018-09-17T08:44:40.341Z,98386.89
2018-09-17T08:45:44.528Z,98388.17
2018-09-17T08:46:47.319Z,98384.52
2018-09-17T08:47:52.450Z,98391.00
2018-09-17T08:48:56.454Z,98387.48
2018-09-17T08:50:00.250Z,98388.28
2018-09-17T08:51:03.095Z,98380.20
2018-09-17T08:52:06.601Z,98384.45
2018-09-17T08:53:10.804Z,98389.90
2018-09-17T08:54:13.661Z,98386.27
2018-09-17T08:55:22.143Z,98376.19
2018-09-17T08:56:29.780Z,98385.89
2018-09-17T08:57:45.241Z,98382.19
2018-09-17T08:58:52.997Z,98379.44
2018-09-17T09:00:01.438Z,98378.99
2018-09-17T09:01:09.209Z,98384.28
2018-09-17T09:02:22.717Z,98387.76
2018-09-17T09:03:33.361Z,98388.98
2018-09-17T09:04:41.008Z,98394.20
2018-09-17T09:05:48.696Z,98398.38
2018-09-17T09:06:57.268Z,98388.45
2018-09-17T09:08:01.452Z,98386.25
2018-09-17T09:09:08.537Z,98391.69
2018-09-17T09:10:18.935Z,98393.55
2018-09-17T09:11:27.433Z,98385.27
2018-09-17T09:12:35.247Z,98385.30
2018-09-17T09:13:44.596Z,98385.22
2018-09-17T09:14:52.280Z,98386.34
2018-09-17T09:15:57.648Z,98390.41
2018-09-17T09:17:03.290Z,98386.89
2018-09-17T09:18:07.245Z,98383.91
2018-09-17T09:19:10.524Z,98381.25
2018-09-17T09:20:18.151Z,98385.19
2018-09-17T09:21:21.239Z,98383.67
2018-09-17T09:22:24.232Z,98377.94
2018-09-17T09:23:27.387Z,98381.10
2018-09-17T09:25:41.965Z,98380.59
2018-09-17T09:26:47.530Z,98377.89
2018-09-17T09:27:50.678Z,98379.36
2018-09-17T09:28:55.734Z,98378.98
2018-09-17T09:29:58.746Z,98376.30
2018-09-17T09:31:02.603Z,98372.55
2018-09-17T09:32:05.509Z,98370.05
2018-09-17T09:33:09.430Z,98371.20
2018-09-17T09:34:16.191Z,98369.31
2018-09-17T09:35:22.323Z,98362.11
2018-09-17T09:36:26.452Z,98367.63
2018-09-17T09:38:17.569Z,98363.35
2018-09-17T09:39:22.180Z,98365.11
2018-09-17T09:40:26.276Z,98354.30
2018-09-17T09:41:29.220Z,98359.84
2018-09-17T09:42:35.186Z,98355.41
2018-09-17T09:43:39.518Z,98356.36
2018-09-17T09:44:42.329Z,98351.59
2018-09-17T09:45:47.617Z,98356.33
2018-09-17T09:46:51.452Z,98356.97
2018-09-17T09:47:54.219Z,98350.11
2018-09-17T09:48:57.319Z,98344.50
2018-09-17T09:50:01.261Z,98350.73
2018-09-17T09:51:23.469Z,98344.97
2018-09-17T09:52:26.484Z,98338.76
2018-09-17T09:53:33.389Z,98339.25
2018-09-17T09:54:37.768Z,98339.28
2018-09-17T09:55:40.761Z,98333.05
2018-09-17T09:56:43.757Z,98337.83
2018-09-17T09:58:56.448Z,98329.57
2018-09-17T10:00:00.444Z,98329.57
2018-09-17T10:01:12.896Z,98328.48
2018-09-17T10:02:21.401Z,98326.30
2018-09-17T10:03:32.634Z,98328.66
2018-09-17T10:04:37.283Z,98323.04
2018-09-17T10:05:40.842Z,98325.78
2018-09-17T10:06:43.674Z,98324.11
2018-09-17T10:07:47.237Z,98328.94
2018-09-17T10:08:56.457Z,98327.76
2018-09-17T10:10:05.359Z,98326.81
2018-09-17T10:11:13.145Z,98321.11
2018-09-17T10:12:21.547Z,98320.36
2018-09-17T10:13:30.147Z,98323.48
2018-09-17T10:14:38.837Z,98315.50
2018-09-17T10:17:49.786Z,98316.00
2018-09-17T10:18:58.184Z,98323.31
2018-09-17T10:20:02.509Z,98315.80
2018-09-17T10:21:06.403Z,98328.30
2018-09-17T10:22:09.396Z,98325.95
2018-09-17T10:23:14.719Z,98328.25
2018-09-17T10:24:17.606Z,98317.10
2018-09-17T10:25:21.346Z,98326.09
2018-09-17T10:26:24.738Z,98325.39
2018-09-17T10:27:28.793Z,98315.87
2018-09-17T10:28:33.309Z,98319.80
2018-09-17T10:29:37.815Z,98314.70
2018-09-17T10:43:00.074Z,98313.84
2018-09-17T10:44:05.204Z,98316.92
2018-09-17T10:45:08.527Z,98318.95
2018-09-17T10:46:11.602Z,98315.00
2018-09-17T10:47:15.700Z,98303.00
2018-09-17T10:48:20.081Z,98301.56
2018-09-17T10:49:22.954Z,98302.98
2018-09-17T10:50:26.509Z,98309.33
2018-09-17T10:51:29.495Z,98304.49
2018-09-17T10:52:32.361Z,98302.65
2018-09-17T10:53:39.443Z,98298.12
2018-09-17T10:54:45.124Z,98303.69
2018-09-17T10:55:48.227Z,98304.09
2018-09-17T10:56:54.165Z,98305.20
2018-09-17T10:57:58.371Z,98304.45
2018-09-17T10:59:01.298Z,98312.47
2018-09-17T11:00:04.568Z,98300.34
2018-09-17T11:01:08.645Z,98302.45
2018-09-17T11:02:12.849Z,98298.77
2018-09-17T11:03:18.642Z,98295.98
2018-09-17T11:04:21.784Z,98293.82
2018-09-17T11:05:25.451Z,98289.55
2018-09-17T11:06:28.397Z,98286.38
2018-09-17T11:07:31.784Z,98285.45
2018-09-17T11:08:35.139Z,98280.77
2018-09-17T11:09:43.515Z,98282.44
2018-09-17T11:10:46.438Z,98287.80
2018-09-17T11:11:51.260Z,98287.58
2018-09-17T11:12:54.310Z,98285.92
2018-09-17T11:14:02.588Z,98287.58
2018-09-17T11:15:08.512Z,98278.24
2018-09-17T11:16:15.083Z,98280.64
2018-09-17T11:17:21.272Z,98284.09
2018-09-17T11:18:24.701Z,98279.58
2018-09-17T11:19:27.721Z,98281.48
2018-09-17T11:20:31.378Z,98270.95
2018-09-17T11:21:35.188Z,98274.37
2018-09-17T11:22:38.692Z,98281.20
2018-09-17T11:23:41.615Z,98273.56
2018-09-17T11:24:44.521Z,98270.05
2018-09-17T11:25:47.675Z,98267.50
2018-09-17T11:26:50.846Z,98271.34
2018-09-17T11:27:55.519Z,98270.02
2018-09-17T11:28:59.327Z,98270.48
2018-09-17T11:30:03.194Z,98266.04
2018-09-17T11:31:12.781Z,98262.48
2018-09-17T11:32:16.692Z,98267.64
2018-09-17T11:33:19.805Z,98265.38
2018-09-17T11:34:24.319Z,98267.36
2018-09-17T11:35:28.494Z,98269.08
2018-09-17T11:36:31.373Z,98262.63
2018-09-17T11:37:34.556Z,98267.93
2018-09-17T11:38:37.471Z,98268.84
2018-09-17T11:39:41.564Z,98266.41
2018-09-17T11:40:44.415Z,98257.47
2018-09-17T11:41:48.284Z,98252.75
2018-09-17T11:42:51.183Z,98260.77
2018-09-17T11:43:54.901Z,98262.81
2018-09-17T11:44:57.651Z,98258.03
2018-09-17T11:46:00.448Z,98259.72
2018-09-17T11:47:04.979Z,98259.78
2018-09-17T11:48:07.883Z,98256.13
2018-09-17T11:49:10.633Z,98256.09
2018-09-17T11:50:13.748Z,98256.67
2018-09-17T11:51:21.381Z,98254.63
2018-09-17T11:52:24.269Z,98248.05
2018-09-17T11:53:30.164Z,98252.23
2018-09-17T11:54:32.982Z,98253.77
2018-09-17T11:55:36.487Z,98245.60
2018-09-17T11:56:39.568Z,98252.83
2018-09-17T11:57:42.368Z,98250.52
2018-09-17T11:58:45.869Z,98243.08
2018-09-17T11:59:49.443Z,98246.48
2018-09-17T12:00:57.077Z,98245.16
2018-09-17T12:02:10.976Z,98237.50
2018-09-17T12:03:19.203Z,98249.22
2018-09-17T12:04:27.973Z,98245.52
2018-09-17T12:05:35.858Z,98243.59
2018-09-17T12:06:43.510Z,98237.85
2018-09-17T12:07:47.075Z,98235.47
2018-09-17T12:08:50.172Z,98235.24
2018-09-17T12:09:52.953Z,98235.00
2018-09-17T12:10:55.812Z,98232.37
2018-09-17T12:11:58.605Z,98232.73
2018-09-17T12:13:01.437Z,98231.25
2018-09-17T12:14:04.208Z,98229.19
2018-09-17T12:15:07.448Z,98228.18
2018-09-17T12:16:10.219Z,98219.64
2018-09-17T12:17:12.999Z,98222.66
2018-09-17T12:18:16.589Z,98220.64
2018-09-17T12:19:19.413Z,98226.75
2018-09-17T12:20:22.468Z,98221.64
2018-09-17T12:21:26.126Z,98218.67
2018-09-17T12:22:29.422Z,98220.69
2018-09-17T12:23:32.554Z,98229.47
2018-09-17T12:24:36.644Z,98230.61
2018-09-17T12:25:41.166Z,98231.47
2018-09-17T12:26:47.337Z,98227.16
2018-09-17T12:27:50.391Z,98226.30
2018-09-17T12:28:53.178Z,98223.58
2018-09-17T12:29:57.635Z,98225.78
2018-09-17T12:31:02.701Z,98223.06
2018-09-17T12:32:06.487Z,98222.42
2018-09-17T12:33:09.336Z,98212.55
2018-09-17T12:34:12.517Z,98207.39
2018-09-17T12:35:15.282Z,98202.94
2018-09-17T12:36:18.058Z,98202.38
2018-09-17T12:37:21.984Z,98207.77
2018-09-17T12:38:24.757Z,98209.59
2018-09-17T12:39:28.800Z,98216.41
2018-09-17T12:40:34.602Z,98215.02
2018-09-17T12:41:37.378Z,98217.91
2018-09-17T12:42:40.264Z,98214.39
2018-09-17T12:43:43.064Z,98206.12
2018-09-17T12:44:46.790Z,98225.90
2018-09-17T12:45:51.118Z,98219.66
2018-09-17T12:46:55.032Z,98215.15
2018-09-17T12:47:57.873Z,98216.05
2018-09-17T12:49:02.161Z,98204.79
2018-09-17T12:50:05.239Z,98211.47
2018-09-17T12:51:09.618Z,98206.65
2018-09-17T12:52:12.441Z,98202.85
2018-09-17T12:53:16.253Z,98200.66
2018-09-17T12:54:19.064Z,98198.58
2018-09-17T12:55:21.860Z,98195.05
2018-09-17T12:56:25.390Z,98201.70
2018-09-17T12:57:28.223Z,98194.09
2018-09-17T12:58:32.580Z,98200.84
2018-09-17T12:59:35.719Z,98187.41
2018-09-17T13:00:38.796Z,98186.97
2018-09-17T13:01:43.266Z,98190.44
2018-09-17T13:02:46.027Z,98192.27
2018-09-17T13:03:49.565Z,98189.61
2018-09-17T13:04:52.367Z,98191.21
2018-09-17T13:05:59.001Z,98194.42
2018-09-17T13:07:03.739Z,98187.02
2018-09-17T13:08:06.513Z,98186.41
2018-09-17T13:09:11.520Z,98189.54
2018-09-17T13:10:14.371Z,98183.84
2018-09-17T13:11:17.183Z,98185.54
2018-09-17T13:12:20.308Z,98178.87
2018-09-17T13:13:23.088Z,98184.16
2018-09-17T13:14:25.932Z,98181.91
2018-09-17T13:15:28.730Z,98182.61
2018-09-17T13:16:31.567Z,98179.03
2018-09-17T13:17:34.374Z,98175.27
2018-09-17T13:18:37.423Z,98177.91
2018-09-17T13:19:40.289Z,98171.44
2018-09-17T13:20:43.972Z,98174.84
2018-09-17T13:21:46.748Z,98169.77
2018-09-17T13:22:50.693Z,98172.98
2018-09-17T13:23:53.495Z,98172.44
2018-09-17T13:24:59.008Z,98182.23
2018-09-17T13:26:04.345Z,98177.05
2018-09-17T13:27:08.976Z,98178.52
2018-09-17T13:28:12.390Z,98182.19
2018-09-17T13:29:15.146Z,98176.06
2018-09-17T13:30:18.086Z,98180.77
2018-09-17T13:31:21.828Z,98185.05
2018-09-17T13:32:24.637Z,98174.17
2018-09-17T13:33:27.546Z,98175.84
2018-09-17T13:34:30.369Z,98173.09
2018-09-17T13:35:33.342Z,98167.89
2018-09-17T13:36:36.494Z,98179.97
2018-09-17T13:37:40.834Z,98179.73
2018-09-17T13:38:43.645Z,98178.06
2018-09-17T13:39:46.877Z,98168.77
2018-09-17T13:40:49.847Z,98163.80
2018-09-17T13:41:52.610Z,98170.28
2018-09-17T13:42:55.914Z,98159.70
2018-09-17T13:43:59.173Z,98163.81
2018-09-17T13:45:02.311Z,98156.71